Time;durP1;ratioP1;P1;durP2;ratioP2;P2;SDS_P1;SDS_P2;PMS_P1;PMS_P2;Temp;Humidity;BMP_temperature;BMP_pressure;BME280_temperature;BME280_humidity;BME280_pressure;Samples;Min_cycle;Max_cycle;Signal;HPM_P1;HPM_P2
2023/01/24 00:02:05;;;;;;;;;;;;;;;6.51;89.27;96037.38;5054403;28;1114;-52
2023/01/24 00:04:31;;;;;;;;;;;;;;;6.50;89.46;96047.13;5054180;28;974;-52
2023/01/24 00:06:57;;;;;;;;;;;;;;;6.50;89.34;96044.47;5054385;28;1013;-51
2023/01/24 00:09:23;;;;;;;;;;;;;;;6.34;89.25;96051.91;5054291;28;976;-52
2023/01/24 00:11:49;;;;;;;;;;;;;;;6.21;90.24;96046.63;5054257;28;1040;-52
2023/01/24 00:14:15;;;;;;;;;;;;;;;6.14;90.78;96042.72;5054157;28;997;-52
2023/01/24 00:16:41;;;;;;;;;;;;;;;6.18;91.04;96050.34;5053989;28;978;-52
2023/01/24 00:19:07;;;;;;;;;;;;;;;6.23;90.63;96045.53;5053675;28;1906;-52
2023/01/24 00:21:33;;;;;;;;;;;;;;;6.31;90.45;96054.75;5052861;28;974;-52
2023/01/24 00:23:59;;;;;;;;;;;;;;;6.38;89.70;96058.66;5054092;28;969;-52
2023/01/24 00:26:26;;;;;;;;;;;;;;;6.47;89.37;96063.31;5053937;28;1021;-52
2023/01/24 00:28:52;;;;;;;;;;;;;;;6.61;86.85;96067.59;5053838;28;922;-52
2023/01/24 00:31:18;;;;;;;;;;;;;;;6.69;87.25;96059.88;5053825;28;1029;-52
2023/01/24 00:33:44;;;;;;;;;;;;;;;6.79;86.68;96060.03;5053685;28;1046;-52
2023/01/24 00:36:10;;;;;;;;;;;;;;;6.81;86.10;96069.59;5053912;28;1037;-52
2023/01/24 00:38:37;;;;;;;;;;;;;;;6.83;85.89;96066.84;5053804;28;982;-52
2023/01/24 00:41:03;;;;;;;;;;;;;;;6.89;84.93;96060.22;5053668;28;1980;-52
2023/01/24 00:43:29;;;;;;;;;;;;;;;6.99;83.33;96055.88;5053574;28;994;-52
2023/01/24 00:45:55;;;;;;;;;;;;;;;7.09;82.24;96054.19;5053539;28;1089;-52
2023/01/24 00:48:21;;;;;;;;;;;;;;;7.14;81.72;96060.03;5052224;28;977;-52
2023/01/24 00:50:48;;;;;;;;;;;;;;;7.09;81.77;96056.84;5053683;28;1049;-52
2023/01/24 00:53:14;;;;;;;;;;;;;;;7.05;82.74;96060.72;5053387;28;1061;-52
2023/01/24 00:55:41;;;;;;;;;;;;;;;6.95;82.78;96049.09;5058095;28;1158;-52
2023/01/24 00:58:07;;;;;;;;;;;;;;;7.01;82.38;96043.31;5073514;28;979;-52
2023/01/24 01:00:34;;;;;;;;;;;;;;;7.03;82.46;96049.34;5073303;28;1997;-51
2023/01/24 01:03:00;;;;;;;;;;;;;;;6.97;82.80;96052.50;5073249;28;1018;-51
2023/01/24 01:05:26;;;;;;;;;;;;;;;6.92;83.04;96060.78;5073493;28;973;-52
2023/01/24 01:07:52;;;;;;;;;;;;;;;6.94;83.27;96058.03;5073263;28;1209;-52
2023/01/24 01:10:18;;;;;;;;;;;;;;;6.97;82.69;96055.16;5073077;28;1062;-52
2023/01/24 01:12:44;;;;;;;;;;;;;;;7.00;82.45;96057.56;5073148;28;973;-52
2023/01/24 01:15:10;;;;;;;;;;;;;;;7.09;82.00;96056.00;5073108;28;1037;-52
2023/01/24 01:17:36;;;;;;;;;;;;;;;7.00;81.70;96055.75;5073142;28;1100;-51
2023/01/24 01:20:02;;;;;;;;;;;;;;;6.91;83.48;96051.16;5073060;28;1930;-52
2023/01/24 01:22:28;;;;;;;;;;;;;;;6.92;83.15;96062.63;5073280;28;1017;-52
2023/01/24 01:24:54;;;;;;;;;;;;;;;6.90;83.82;96043.28;5073322;28;1117;-52
2023/01/24 01:27:20;;;;;;;;;;;;;;;6.92;83.40;96062.63;5073170;28;958;-52
2023/01/24 01:29:46;;;;;;;;;;;;;;;6.88;83.44;96062.00;5073170;28;1275;-52
2023/01/24 01:32:12;;;;;;;;;;;;;;;6.87;83.59;96064.78;5073073;28;1054;-52
2023/01/24 01:34:38;;;;;;;;;;;;;;;6.87;82.73;96062.13;5073221;28;1190;-52
2023/01/24 01:37:04;;;;;;;;;;;;;;;6.82;83.13;96050.03;5073012;28;1092;-52
2023/01/24 01:39:31;;;;;;;;;;;;;;;6.83;83.69;96051.72;5073036;28;1909;-52
2023/01/24 01:41:57;;;;;;;;;;;;;;;6.84;83.74;96045.44;5073117;28;1064;-52
2023/01/24 01:47:16;;;;;;;;;;;;;;;6.80;84.85;96048.44;5073243;28;988;-52
2023/01/24 01:49:48;;;;;;;;;;;;;;;6.83;85.89;96051.72;5072859;28;1046;-52
2023/01/24 01:52:14;;;;;;;;;;;;;;;6.83;85.02;96057.03;5073046;28;1040;-52
2023/01/24 01:54:44;;;;;;;;;;;;;;;6.88;83.70;96051.38;5072859;28;974;-52
2023/01/24 01:57:13;;;;;;;;;;;;;;;6.90;84.15;96049.44;5055538;28;1242;-52
2023/01/24 01:59:43;;;;;;;;;;;;;;;6.98;82.85;96051.50;5052936;28;1910;-52
2023/01/24 02:02:10;;;;;;;;;;;;;;;7.01;81.67;96048.63;5052959;28;1056;-52
2023/01/24 02:04:38;;;;;;;;;;;;;;;6.83;82.71;96046.41;5052665;28;954;-52
2023/01/24 02:07:16;;;;;;;;;;;;;;;6.81;82.63;96053.66;5052838;28;1017;-52
2023/01/24 02:09:45;;;;;;;;;;;;;;;6.89;82.10;96053.06;5052723;28;1044;-52
2023/01/24 02:12:13;;;;;;;;;;;;;;;6.96;81.56;96058.75;5052820;28;985;-52
2023/01/24 02:17:24;;;;;;;;;;;;;;;6.90;82.03;96043.28;5052628;28;1049;-52
2023/01/24 02:20:09;;;;;;;;;;;;;;;6.92;81.80;96046.66;5052384;28;1914;-52
2023/01/24 02:22:47;;;;;;;;;;;;;;;6.81;82.71;96043.03;5052573;28;1056;-52
2023/01/24 02:25:26;;;;;;;;;;;;;;;6.84;82.81;96052.56;5053257;28;963;-52
2023/01/24 02:27:52;;;;;;;;;;;;;;;6.85;82.95;96041.00;5056494;28;999;-52
2023/01/24 02:30:18;;;;;;;;;;;;;;;6.90;82.41;96041.47;5056003;28;1021;-52
2023/01/24 02:32:44;;;;;;;;;;;;;;;6.94;81.80;96040.25;5055943;28;925;-52
2023/01/24 02:35:23;;;;;;;;;;;;;;;6.94;81.75;96036.75;5055964;28;1101;-52
2023/01/24 02:37:49;;;;;;;;;;;;;;;6.72;84.21;96045.53;5055910;28;1998;-52
2023/01/24 02:40:16;;;;;;;;;;;;;;;6.44;86.67;96039.63;5056003;28;1977;-52
2023/01/24 02:42:42;;;;;;;;;;;;;;;6.30;87.50;96039.78;5055858;28;1013;-52
2023/01/24 02:45:35;;;;;;;;;;;;;;;6.17;88.95;96045.16;5055778;28;1104;-52
2023/01/24 02:48:01;;;;;;;;;;;;;;;6.18;89.23;96044.19;5052422;28;1673;-52
2023/01/24 02:53:28;;;;;;;;;;;;;;;6.23;89.79;96048.19;5055627;28;1096;-52
2023/01/24 02:53:30;;;;;;;;;;;;;;;6.24;89.83;96043.72;5055728;28;1202;-52
2023/01/24 02:59:01;;;;;;;;;;;;;;;6.34;89.50;96043.94;4994040;28;1093;-52
2023/01/24 03:01:29;;;;;;;;;;;;;;;6.35;89.89;96041.13;4993924;28;1906;-51
2023/01/24 03:03:55;;;;;;;;;;;;;;;6.20;90.61;96034.28;5033154;28;1090;-52
2023/01/24 03:06:21;;;;;;;;;;;;;;;6.13;91.21;96025.06;5075267;28;1586;-52
2023/01/24 03:08:47;;;;;;;;;;;;;;;6.27;90.26;96016.13;5075586;28;1040;-52
2023/01/24 03:11:13;;;;;;;;;;;;;;;6.40;88.58;96011.59;5075310;28;1084;-52
2023/01/24 03:35:53;;;;;;;;;;;;;;;6.02;92.38;96021.41;5054582;28;991;-52
2023/01/24 03:41:05;;;;;;;;;;;;;;;6.15;90.78;96032.00;5054717;28;1981;-52
2023/01/24 03:43:32;;;;;;;;;;;;;;;6.15;90.65;96036.47;5054555;28;1053;-52
2023/01/24 03:45:58;;;;;;;;;;;;;;;6.15;90.89;96037.31;5054634;28;1038;-52
2023/01/24 03:48:26;;;;;;;;;;;;;;;6.14;91.55;96037.41;5054547;28;1112;-52
2023/01/24 03:53:37;;;;;;;;;;;;;;;6.17;92.35;96039.84;5054439;28;1085;-51
2023/01/24 03:56:03;;;;;;;;;;;;;;;6.25;91.65;96037.47;5061101;28;1167;-52
2023/01/24 03:58:30;;;;;;;;;;;;;;;6.31;91.00;96028.22;5074238;28;1057;-52
2023/01/24 04:00:56;;;;;;;;;;;;;;;6.31;90.53;96026.38;5074464;28;2005;-52
2023/01/24 04:03:23;;;;;;;;;;;;;;;6.31;90.02;96022.91;5074397;28;1026;-52
2023/01/24 04:05:50;;;;;;;;;;;;;;;6.35;89.18;96027.84;5074328;28;1073;-52
2023/01/24 04:08:16;;;;;;;;;;;;;;;6.37;88.82;96033.06;5074217;28;962;-52
2023/01/24 04:10:42;;;;;;;;;;;;;;;6.40;88.82;96033.69;5074009;28;1116;-52
2023/01/24 04:13:12;;;;;;;;;;;;;;;6.42;88.71;96042.38;5074038;28;1042;-52
2023/01/24 04:15:38;;;;;;;;;;;;;;;6.36;89.71;96042.84;5073950;28;1050;-52
2023/01/24 04:18:05;;;;;;;;;;;;;;;6.39;89.73;96042.63;5056330;28;1092;-52
2023/01/24 04:20:33;;;;;;;;;;;;;;;6.43;89.92;96041.44;5073913;28;1909;-52
2023/01/24 04:22:59;;;;;;;;;;;;;;;6.42;90.69;96039.72;5073977;28;1006;-52
2023/01/24 04:25:26;;;;;;;;;;;;;;;6.41;91.17;96042.50;5073803;28;1029;-52
2023/01/24 04:27:52;;;;;;;;;;;;;;;6.28;91.29;96050.53;5073755;28;1037;-52
2023/01/24 04:30:18;;;;;;;;;;;;;;;6.24;92.78;96046.38;5073736;28;1097;-51
2023/01/24 04:32:44;;;;;;;;;;;;;;;6.16;93.31;96040.78;5073936;28;1033;-52
2023/01/24 04:35:15;;;;;;;;;;;;;;;6.17;93.33;96042.50;5056183;28;1301;-52
2023/01/24 04:37:41;;;;;;;;;;;;;;;6.11;93.49;96042.94;5073598;28;1057;-52
2023/01/24 04:40:07;;;;;;;;;;;;;;;6.17;93.64;96039.84;5073651;28;1910;-52
2023/01/24 04:42:33;;;;;;;;;;;;;;;6.04;94.64;96042.53;5073468;28;1032;-52
2023/01/24 04:44:59;;;;;;;;;;;;;;;5.87;95.22;96044.56;5073546;28;1109;-52
2023/01/24 04:47:26;;;;;;;;;;;;;;;5.89;95.34;96054.25;5073451;28;966;-52
2023/01/24 04:49:52;;;;;;;;;;;;;;;5.95;94.97;96051.13;5073229;28;1064;-52
2023/01/24 04:52:18;;;;;;;;;;;;;;;5.87;95.59;96049.03;5072191;28;1144;-52
2023/01/24 04:54:44;;;;;;;;;;;;;;;5.92;95.77;96054.88;5073454;28;1307;-52
2023/01/24 04:57:11;;;;;;;;;;;;;;;6.07;94.98;96050.31;5073339;28;1277;-52
2023/01/24 04:59:37;;;;;;;;;;;;;;;6.15;95.00;96049.75;5073500;28;1913;-52
2023/01/24 05:02:04;;;;;;;;;;;;;;;6.11;95.38;96054.44;5073348;28;1074;-52
2023/01/24 05:04:30;;;;;;;;;;;;;;;6.06;95.92;96064.53;5073423;28;1037;-52
2023/01/24 05:06:56;;;;;;;;;;;;;;;6.10;95.60;96062.50;5073283;28;1555;-52
2023/01/24 05:09:22;;;;;;;;;;;;;;;6.13;95.67;96070.22;5055486;28;1013;-53
2023/01/24 05:11:48;;;;;;;;;;;;;;;6.13;95.43;96073.75;5055470;28;1029;-51
2023/01/24 05:14:14;;;;;;;;;;;;;;;6.12;95.59;96069.38;5055524;28;1097;-51
2023/01/24 05:16:40;;;;;;;;;;;;;;;6.13;95.50;96062.25;5073317;28;1001;-51
2023/01/24 05:19:06;;;;;;;;;;;;;;;6.11;95.84;96070.34;5055270;28;1768;-51
2023/01/24 05:21:32;;;;;;;;;;;;;;;6.09;95.80;96077.59;5073036;28;1898;-51
2023/01/24 05:23:58;;;;;;;;;;;;;;;6.11;95.66;96075.66;5073217;28;1095;-51
2023/01/24 05:26:26;;;;;;;;;;;;;;;6.13;95.18;96084.38;5072972;28;1045;-51
2023/01/24 05:28:52;;;;;;;;;;;;;;;6.09;95.12;96087.34;5073372;28;972;-51
2023/01/24 05:31:19;;;;;;;;;;;;;;;5.96;95.80;96087.41;5073290;28;1017;-52
2023/01/24 05:33:45;;;;;;;;;;;;;;;5.87;95.70;96092.34;5055433;28;1021;-52
2023/01/24 05:36:16;;;;;;;;;;;;;;;5.89;95.92;96099.38;5055396;28;1060;-52
2023/01/24 05:38:42;;;;;;;;;;;;;;;5.97;96.21;96105.84;5055285;28;1018;-52
2023/01/24 05:41:10;;;;;;;;;;;;;;;6.01;96.23;96101.16;5072843;28;1906;-52
2023/01/24 05:43:36;;;;;;;;;;;;;;;5.96;95.63;96098.84;5073133;28;966;-51
2023/01/24 05:46:03;;;;;;;;;;;;;;;5.91;95.51;96111.56;5073131;28;1009;-52
2023/01/24 05:48:30;;;;;;;;;;;;;;;5.94;95.97;96106.03;5055198;28;1045;-52
2023/01/24 05:50:57;;;;;;;;;;;;;;;5.96;95.78;96112.13;5055216;28;1170;-52
2023/01/24 05:53:23;;;;;;;;;;;;;;;5.98;95.85;96112.88;5072732;28;1108;-52
2023/01/24 05:56:03;;;;;;;;;;;;;;;6.01;96.20;96111.78;5066709;28;1154;-52
2023/01/24 05:58:33;;;;;;;;;;;;;;;6.00;95.75;96112.75;5052813;28;1146;-52
2023/01/24 06:00:59;;;;;;;;;;;;;;;6.08;93.88;96121.00;5071632;28;1981;-52
2023/01/24 06:03:25;;;;;;;;;;;;;;;6.14;93.17;96120.56;5056561;28;1040;-52
2023/01/24 06:05:53;;;;;;;;;;;;;;;6.12;93.09;96125.13;5056499;28;1201;-52
2023/01/24 06:08:20;;;;;;;;;;;;;;;6.13;92.58;96123.31;5056390;28;1025;-52
2023/01/24 06:10:46;;;;;;;;;;;;;;;6.13;92.70;96137.47;5056687;28;1036;-52
2023/01/24 06:13:12;;;;;;;;;;;;;;;6.14;91.77;96135.66;5056572;28;1167;-52
2023/01/24 06:15:38;;;;;;;;;;;;;;;6.19;91.65;96142.34;5056438;28;973;-52
2023/01/24 06:18:05;;;;;;;;;;;;;;;6.19;91.89;96141.50;5056191;28;1335;-53
2023/01/24 06:20:31;;;;;;;;;;;;;;;6.24;91.25;96144.66;5056180;28;1906;-53
2023/01/24 06:23:04;;;;;;;;;;;;;;;6.24;89.90;96155.28;5055062;28;925;-52
2023/01/24 06:25:31;;;;;;;;;;;;;;;6.15;90.34;96155.97;5055141;28;989;-53
2023/01/24 06:27:57;;;;;;;;;;;;;;;6.15;90.21;96158.63;5056310;28;1040;-53
2023/01/24 06:30:23;;;;;;;;;;;;;;;6.16;88.68;96157.63;5055977;28;1030;-53
2023/01/24 06:32:52;;;;;;;;;;;;;;;6.12;89.80;96161.47;5056113;28;1022;-53
2023/01/24 06:35:27;;;;;;;;;;;;;;;6.04;89.35;96172.66;5055956;28;1089;-53
2023/01/24 06:37:53;;;;;;;;;;;;;;;5.99;88.89;96169.44;5056198;28;1075;-53
2023/01/24 06:40:22;;;;;;;;;;;;;;;5.91;89.37;96169.97;5055721;28;1902;-50
2023/01/24 06:42:49;;;;;;;;;;;;;;;5.85;89.43;96173.06;5055990;28;1021;-50
2023/01/24 06:45:15;;;;;;;;;;;;;;;5.87;88.93;96179.09;5055851;28;1045;-50
2023/01/24 06:47:42;;;;;;;;;;;;;;;5.86;89.97;96172.94;5055742;28;1084;-50
2023/01/24 06:50:16;;;;;;;;;;;;;;;5.84;89.05;96184.63;5055749;28;1044;-50
2023/01/24 06:52:44;;;;;;;;;;;;;;;5.77;89.63;96186.03;5055876;28;1048;-52
2023/01/24 06:55:10;;;;;;;;;;;;;;;5.78;90.00;96187.69;5056330;28;1209;-53
2023/01/24 06:57:36;;;;;;;;;;;;;;;5.76;89.39;96181.66;5075650;28;997;-53
2023/01/24 07:00:03;;;;;;;;;;;;;;;5.82;89.79;96191.84;5074453;28;1981;-53
2023/01/24 07:02:29;;;;;;;;;;;;;;;5.86;89.00;96199.50;5075437;28;977;-53
2023/01/24 07:04:55;;;;;;;;;;;;;;;5.81;89.08;96200.78;5075482;28;1034;-53
2023/01/24 07:07:21;;;;;;;;;;;;;;;5.79;89.44;96197.38;5075296;28;1030;-53
2023/01/24 07:09:47;;;;;;;;;;;;;;;5.80;89.19;96209.66;5075336;28;1030;-50
2023/01/24 07:12:13;;;;;;;;;;;;;;;5.81;88.89;96200.78;5074683;28;1757;-50
2023/01/24 07:14:39;;;;;;;;;;;;;;;5.84;87.67;96203.19;5075291;28;970;-50
2023/01/24 07:17:05;;;;;;;;;;;;;;;5.76;88.33;96214.34;5075187;28;1873;-50
2023/01/24 07:19:31;;;;;;;;;;;;;;;5.72;88.71;96217.31;5057206;28;1981;-50
2023/01/24 07:21:58;;;;;;;;;;;;;;;5.77;88.27;96217.88;5075330;28;1064;-50
2023/01/24 07:24:25;;;;;;;;;;;;;;;5.78;88.75;96223.03;5075210;28;965;-50
2023/01/24 07:26:51;;;;;;;;;;;;;;;5.73;88.90;96219.88;5075039;28;1017;-50
2023/01/24 07:29:18;;;;;;;;;;;;;;;5.67;89.52;96229.09;5075081;28;945;-50
2023/01/24 07:31:44;;;;;;;;;;;;;;;5.71;89.65;96228.88;5074837;28;1305;-51
2023/01/24 07:34:10;;;;;;;;;;;;;;;5.76;89.38;96232.91;5075104;28;984;-50
2023/01/24 07:36:36;;;;;;;;;;;;;;;5.73;89.07;96235.78;5074699;28;1957;-50
2023/01/24 07:39:02;;;;;;;;;;;;;;;5.70;88.81;96233.34;5074767;28;1868;-51
2023/01/24 07:41:28;;;;;;;;;;;;;;;5.70;88.31;96237.81;5074749;28;1985;-51
2023/01/24 07:43:55;;;;;;;;;;;;;;;5.72;88.68;96233.25;5074781;28;1021;-51
2023/01/24 07:46:21;;;;;;;;;;;;;;;5.77;87.85;96237.28;5074543;28;969;-50
2023/01/24 07:48:47;;;;;;;;;;;;;;;5.68;86.85;96248.53;5074525;28;1040;-51
2023/01/24 07:51:13;;;;;;;;;;;;;;;5.57;87.92;96241.28;5057056;28;1275;-51
2023/01/24 07:53:39;;;;;;;;;;;;;;;5.61;88.45;96248.06;5074417;28;1061;-51
2023/01/24 07:56:05;;;;;;;;;;;;;;;5.51;88.82;96248.81;5066405;28;1197;-51
2023/01/24 07:58:31;;;;;;;;;;;;;;;5.57;88.63;96243.94;5054447;28;1021;-51
2023/01/24 08:00:58;;;;;;;;;;;;;;;5.57;89.88;96245.75;5054344;28;1910;-50
2023/01/24 08:03:24;;;;;;;;;;;;;;;5.52;89.42;96250.50;5054251;28;1041;-50
2023/01/24 08:05:50;;;;;;;;;;;;;;;5.38;89.41;96252.28;5054306;28;1042;-51
2023/01/24 08:08:16;;;;;;;;;;;;;;;5.41;89.98;96261.84;5053230;28;1014;-50
2023/01/24 08:10:42;;;;;;;;;;;;;;;5.46;89.64;96254.41;5052962;28;1045;-51
2023/01/24 08:13:08;;;;;;;;;;;;;;;5.54;90.19;96262.72;5061029;28;1346;-51
2023/01/24 08:15:34;;;;;;;;;;;;;;;5.59;89.67;96259.75;5073808;28;1045;-51
2023/01/24 08:18:03;;;;;;;;;;;;;;;5.64;88.83;96266.44;5073853;28;1113;-51
2023/01/24 08:20:29;;;;;;;;;;;;;;;5.63;88.91;96266.53;5074068;28;2038;-51
2023/01/24 08:22:58;;;;;;;;;;;;;;;5.57;88.76;96262.50;5073178;28;927;-51
2023/01/24 08:25:25;;;;;;;;;;;;;;;5.52;88.51;96255.81;5073572;28;1136;-52
2023/01/24 08:27:51;;;;;;;;;;;;;;;5.52;89.47;96266.41;5073902;28;1035;-52
2023/01/24 08:30:17;;;;;;;;;;;;;;;5.66;88.70;96263.69;5073791;28;1065;-53
2023/01/24 08:32:43;;;;;;;;;;;;;;;5.76;87.39;96262.09;5073940;28;966;-52
2023/01/24 08:35:09;;;;;;;;;;;;;;;5.78;87.33;96265.50;5073668;28;1273;-52
2023/01/24 08:37:35;;;;;;;;;;;;;;;5.84;86.97;96265.09;5073565;28;1935;-52
2023/01/24 08:40:01;;;;;;;;;;;;;;;5.89;87.94;96267.44;5073734;28;1991;-53
2023/01/24 08:42:27;;;;;;;;;;;;;;;5.91;87.71;96270.00;5072504;28;1033;-52
2023/01/24 08:44:53;;;;;;;;;;;;;;;5.96;88.21;96268.75;5073283;28;1222;-53
2023/01/24 08:47:19;;;;;;;;;;;;;;;6.03;88.04;96266.50;5073484;28;1041;-52
2023/01/24 08:49:45;;;;;;;;;;;;;;;6.03;88.00;96272.69;5073723;28;1060;-52
2023/01/24 08:52:12;;;;;;;;;;;;;;;6.05;87.63;96275.22;5073598;28;1022;-52
2023/01/24 08:54:38;;;;;;;;;;;;;;;6.02;88.57;96263.00;5073318;28;1459;-51
2023/01/24 08:57:06;;;;;;;;;;;;;;;5.79;87.87;96267.22;5057080;28;1154;-51
2023/01/24 08:59:32;;;;;;;;;;;;;;;5.90;88.84;96271.81;5053175;28;2001;-51
2023/01/24 09:01:58;;;;;;;;;;;;;;;5.93;88.68;96268.91;5053538;28;1053;-52
2023/01/24 09:04:26;;;;;;;;;;;;;;;6.07;88.80;96260.06;5058959;28;1093;-52
2023/01/24 09:06:52;;;;;;;;;;;;;;;6.12;87.57;96263.22;5073450;28;1033;-52
2023/01/24 09:09:19;;;;;;;;;;;;;;;5.99;86.84;96257.91;5073220;28;1100;-52
2023/01/24 09:11:45;;;;;;;;;;;;;;;6.04;88.80;96269.06;5073386;28;1052;-51
2023/01/24 09:14:11;;;;;;;;;;;;;;;6.18;89.71;96262.78;5072928;28;1232;-51
2023/01/24 09:16:37;;;;;;;;;;;;;;;6.04;85.97;96263.75;5073117;28;1121;-52
2023/01/24 09:19:03;;;;;;;;;;;;;;;6.02;86.66;96272.78;5055473;28;1310;-52
2023/01/24 09:21:29;;;;;;;;;;;;;;;6.02;86.76;96270.13;5073221;28;1914;-51
2023/01/24 09:23:55;;;;;;;;;;;;;;;6.16;88.21;96271.84;5073112;28;1350;-51
2023/01/24 09:26:22;;;;;;;;;;;;;;;6.11;86.48;96263.31;5073046;28;1042;-51
2023/01/24 09:28:48;;;;;;;;;;;;;;;6.13;86.83;96256.09;5073138;28;1033;-52
2023/01/24 09:31:14;;;;;;;;;;;;;;;6.26;85.04;96267.59;5073063;28;1136;-52
2023/01/24 09:33:40;;;;;;;;;;;;;;;6.40;85.50;96264.81;5073154;28;997;-52
2023/01/24 09:36:06;;;;;;;;;;;;;;;6.34;85.14;96265.25;5076663;28;1105;-52
2023/01/24 09:38:33;;;;;;;;;;;;;;;6.24;85.86;96257.06;5077077;28;942;-52
2023/01/24 09:41:11;;;;;;;;;;;;;;;6.25;84.91;96256.09;5076984;28;1997;-51
2023/01/24 09:43:42;;;;;;;;;;;;;;;6.20;84.96;96258.25;5076808;28;1104;-52
2023/01/24 09:46:28;;;;;;;;;;;;;;;6.17;85.54;96254.97;5076767;28;1983;-51
2023/01/24 09:48:59;;;;;;;;;;;;;;;6.19;84.63;96256.53;5066379;28;1315;-52
2023/01/24 09:51:27;;;;;;;;;;;;;;;6.13;85.80;96251.66;5076700;28;1108;-52
2023/01/24 09:53:55;;;;;;;;;;;;;;;6.11;85.68;96260.66;5076131;28;1049;-52
2023/01/24 09:56:26;;;;;;;;;;;;;;;6.18;85.41;96253.97;5056461;28;1202;-52
2023/01/24 09:59:21;;;;;;;;;;;;;;;6.35;85.61;96248.31;5056647;28;1874;-52
2023/01/24 10:01:48;;;;;;;;;;;;;;;6.54;87.87;96257.66;5043664;28;1563;-52
2023/01/24 10:04:19;;;;;;;;;;;;;;;6.60;87.58;96251.91;5058918;28;1168;-52
2023/01/24 10:07:03;;;;;;;;;;;;;;;6.76;88.86;96257.81;5076782;28;989;-52
2023/01/24 10:09:40;;;;;;;;;;;;;;;6.74;87.58;96253.59;5076502;28;1068;-52
2023/01/24 10:12:21;;;;;;;;;;;;;;;6.73;88.70;96258.03;5076401;28;1045;-52
2023/01/24 10:14:52;;;;;;;;;;;;;;;6.64;88.49;96264.03;5076008;28;1109;-52
2023/01/24 10:17:32;;;;;;;;;;;;;;;6.52;89.58;96248.94;5076265;28;1030;-52
2023/01/24 10:19:58;;;;;;;;;;;;;;;6.41;89.52;96242.59;5076060;28;1921;-52
2023/01/24 10:22:31;;;;;;;;;;;;;;;6.57;89.78;96252.13;5076220;28;980;-52
2023/01/24 10:25:00;;;;;;;;;;;;;;;6.50;88.39;96249.06;5075844;28;1050;-52
2023/01/24 10:27:30;;;;;;;;;;;;;;;6.42;89.32;96246.94;5075864;28;1025;-52
2023/01/24 10:30:01;;;;;;;;;;;;;;;6.49;89.38;96244.72;5076309;28;1049;-52
2023/01/24 10:32:31;;;;;;;;;;;;;;;6.67;88.26;96245.19;5076255;28;1017;-53
2023/01/24 10:35:02;;;;;;;;;;;;;;;6.68;88.21;96244.25;5075811;28;1253;-53
2023/01/24 10:37:31;;;;;;;;;;;;;;;6.50;89.51;96242.91;5075995;28;961;-53
2023/01/24 10:39:58;;;;;;;;;;;;;;;6.42;88.29;96233.66;5075787;28;1906;-53
2023/01/24 10:42:26;;;;;;;;;;;;;;;6.53;88.14;96224.94;5076094;28;974;-53
2023/01/24 10:44:54;;;;;;;;;;;;;;;6.64;88.95;96232.16;5075622;28;1274;-53
2023/01/24 10:47:36;;;;;;;;;;;;;;;6.53;88.33;96226.75;5074608;28;1085;-53
2023/01/24 10:50:23;;;;;;;;;;;;;;;6.50;89.15;96235.78;5075809;28;1052;-53
2023/01/24 10:52:49;;;;;;;;;;;;;;;6.70;88.65;96221.06;5075713;28;1089;-53
2023/01/24 10:55:24;;;;;;;;;;;;;;;6.56;88.04;96227.34;5074363;28;1030;-53
2023/01/24 10:57:54;;;;;;;;;;;;;;;6.54;89.46;96237.25;5055610;28;1042;-53
2023/01/24 11:00:33;;;;;;;;;;;;;;;6.55;90.23;96227.47;5055489;28;1996;-53
2023/01/24 11:03:04;;;;;;;;;;;;;;;6.50;88.53;96229.63;5055470;28;1093;-53
2023/01/24 11:05:43;;;;;;;;;;;;;;;6.51;88.81;96231.31;5066400;28;1238;-52
2023/01/24 11:08:20;;;;;;;;;;;;;;;6.68;89.62;96220.31;5075373;28;1219;-53
2023/01/24 11:10:49;;;;;;;;;;;;;;;6.64;90.42;96225.00;5075309;28;1284;-53
2023/01/24 11:13:21;;;;;;;;;;;;;;;6.56;88.74;96221.19;5074707;28;1263;-53
2023/01/24 11:15:50;;;;;;;;;;;;;;;6.62;88.08;96211.00;5074765;28;1040;-52
2023/01/24 11:18:18;;;;;;;;;;;;;;;6.77;87.73;96226.75;5075286;28;1068;-52
2023/01/24 11:35:14;;;;;;;;;;;;;;;6.63;89.78;96203.84;5030782;28;1264;-51
2023/01/24 11:37:59;;;;;;;;;;;;;;;6.68;88.30;96191.09;5030394;28;1091;-51
2023/01/24 11:40:25;;;;;;;;;;;;;;;6.86;87.67;96196.00;5014613;28;1349;-51
2023/01/24 11:42:57;;;;;;;;;;;;;;;6.97;87.87;96190.75;5030539;28;1906;-51
2023/01/24 11:45:35;;;;;;;;;;;;;;;6.96;87.22;96181.94;5030453;28;1016;-51
2023/01/24 11:48:12;;;;;;;;;;;;;;;6.98;87.12;96188.00;5029928;28;970;-50
2023/01/24 11:50:50;;;;;;;;;;;;;;;6.90;86.53;96184.19;5030321;28;1028;-51
2023/01/24 11:53:22;;;;;;;;;;;;;;;7.00;86.97;96182.53;5030553;28;1047;-51
2023/01/24 11:56:07;;;;;;;;;;;;;;;7.02;85.95;96177.97;5029853;28;965;-51
2023/01/24 11:58:42;;;;;;;;;;;;;;;7.10;85.98;96175.59;5030248;28;1350;-51
2023/01/24 12:01:08;;;;;;;;;;;;;;;7.16;86.84;96174.28;5030176;28;978;-51
2023/01/24 12:03:52;;;;;;;;;;;;;;;7.22;84.61;96169.31;5030277;28;1991;-51
2023/01/24 12:06:18;;;;;;;;;;;;;;;7.27;85.18;96174.31;5030094;28;1104;-50
2023/01/24 12:08:50;;;;;;;;;;;;;;;7.24;84.54;96171.88;5030188;28;1049;-51
2023/01/24 12:11:20;;;;;;;;;;;;;;;7.11;85.37;96176.44;5030155;28;1072;-51
2023/01/24 12:13:52;;;;;;;;;;;;;;;7.11;85.75;96176.44;5030033;28;1097;-51
2023/01/24 12:16:30;;;;;;;;;;;;;;;7.10;84.83;96167.59;5030228;28;1040;-51
2023/01/24 12:18:59;;;;;;;;;;;;;;;7.18;84.85;96172.34;5029899;28;1049;-51
2023/01/24 12:21:25;;;;;;;;;;;;;;;7.27;85.16;96176.13;5029763;28;1033;-51
2023/01/24 12:23:59;;;;;;;;;;;;;;;7.26;82.42;96169.94;5029718;28;1922;-51
2023/01/24 12:26:25;;;;;;;;;;;;;;;7.25;83.45;96173.59;5029788;28;1041;-51
2023/01/24 12:28:57;;;;;;;;;;;;;;;7.38;82.81;96166.38;5029966;28;1013;-51
2023/01/24 12:31:41;;;;;;;;;;;;;;;7.35;82.33;96177.25;5029941;28;1384;-51
2023/01/24 12:34:14;;;;;;;;;;;;;;;7.31;81.45;96174.94;5039253;28;1121;-51
2023/01/24 12:36:45;;;;;;;;;;;;;;;7.34;81.91;96177.34;5035983;28;1033;-50
2023/01/24 12:39:18;;;;;;;;;;;;;;;7.38;82.24;96166.38;5036425;28;1149;-51
2023/01/24 12:41:49;;;;;;;;;;;;;;;7.40;84.10;96175.09;5036302;28;969;-50
2023/01/24 12:44:28;;;;;;;;;;;;;;;7.41;81.53;96162.63;5036161;28;1957;-51
2023/01/24 12:46:54;;;;;;;;;;;;;;;7.38;81.78;96168.16;5036063;28;1068;-51
2023/01/24 12:49:29;;;;;;;;;;;;;;;7.41;83.14;96174.09;5036121;28;1028;-50
2023/01/24 12:52:07;;;;;;;;;;;;;;;7.20;83.20;96173.06;5035956;28;1101;-51
2023/01/24 12:54:45;;;;;;;;;;;;;;;7.17;84.92;96168.84;5035931;28;1024;-51
2023/01/24 12:57:19;;;;;;;;;;;;;;;7.26;84.35;96174.44;5035915;28;977;-51
2023/01/24 12:59:45;;;;;;;;;;;;;;;7.22;82.01;96166.66;5036089;28;1032;-50
2023/01/24 13:02:20;;;;;;;;;;;;;;;7.22;82.06;96172.00;5035836;28;986;-51
2023/01/24 13:05:14;;;;;;;;;;;;;;;7.03;81.24;96177.00;5035585;28;1898;-50
2023/01/24 13:07:43;;;;;;;;;;;;;;;6.96;82.57;96175.75;5035601;28;965;-51
2023/01/24 13:10:09;;;;;;;;;;;;;;;6.94;82.83;96175.84;5035483;28;1061;-50
2023/01/24 13:12:35;;;;;;;;;;;;;;;6.99;82.17;96179.03;5035442;28;1042;-51
2023/01/24 13:15:04;;;;;;;;;;;;;;;7.13;83.09;96182.47;5035667;28;1069;-51
2023/01/24 13:17:30;;;;;;;;;;;;;;;7.30;81.75;96182.06;5035524;28;1048;-51
2023/01/24 13:20:21;;;;;;;;;;;;;;;7.39;81.57;96185.84;5035407;28;1099;-51
2023/01/24 13:22:54;;;;;;;;;;;;;;;7.19;80.32;96185.53;5028078;28;1914;-51
2023/01/24 13:25:27;;;;;;;;;;;;;;;7.12;82.83;96186.13;5035481;28;1030;-51
2023/01/24 13:28:07;;;;;;;;;;;;;;;7.06;82.68;96197.19;5035426;28;984;-51
2023/01/24 13:30:51;;;;;;;;;;;;;;;6.99;83.45;96194.16;5035161;28;1060;-51
2023/01/24 13:33:19;;;;;;;;;;;;;;;6.96;83.47;96199.69;5034893;28;1258;-51
2023/01/24 13:35:47;;;;;;;;;;;;;;;7.01;82.69;96202.84;5035360;28;977;-50
2023/01/24 13:38:24;;;;;;;;;;;;;;;6.99;82.13;96207.44;5035234;28;998;-50
2023/01/24 13:40:58;;;;;;;;;;;;;;;7.01;82.89;96203.69;5035116;28;970;-51
2023/01/24 13:43:36;;;;;;;;;;;;;;;7.04;83.10;96199.97;5034736;28;1995;-51
2023/01/24 13:46:02;;;;;;;;;;;;;;;7.04;84.80;96202.66;5034308;28;1029;-50
2023/01/24 13:48:40;;;;;;;;;;;;;;;6.96;82.21;96207.66;5034601;28;974;-51
2023/01/24 13:51:21;;;;;;;;;;;;;;;6.80;84.48;96211.44;5034961;28;973;-51
2023/01/24 13:53:56;;;;;;;;;;;;;;;6.74;86.27;96211.91;5034730;28;1021;-50
2023/01/24 13:56:22;;;;;;;;;;;;;;;6.81;86.71;96210.50;5034847;28;1020;-51
2023/01/24 13:58:51;;;;;;;;;;;;;;;6.88;86.41;96210.88;5034750;28;1108;-51
2023/01/24 14:01:18;;;;;;;;;;;;;;;6.68;86.90;96209.69;5034613;28;1092;-51
2023/01/24 14:04:03;;;;;;;;;;;;;;;6.65;86.83;96207.25;5034486;28;1910;-50
2023/01/24 14:06:42;;;;;;;;;;;;;;;6.69;87.28;96197.25;5034411;28;1037;-50
2023/01/24 14:09:13;;;;;;;;;;;;;;;6.63;88.21;96199.38;5034711;28;1040;-50
2023/01/24 14:11:51;;;;;;;;;;;;;;;6.70;87.76;96199.81;5034525;28;1032;-50